Time;durP1;ratioP1;P1;durP2;ratioP2;P2;SDS_P1;SDS_P2;PMS_P1;PMS_P2;Temp;Humidity;BMP_temperature;BMP_pressure;BME280_temperature;BME280_humidity;BME280_pressure;Samples;Min_cycle;Max_cycle;Signal;HPM_P1;HPM_P2
2024/04/05 05:00:09;;;;;;;11.80;5.60;;;11.90;99.90;;;;;;4873879;24;20866;31
2024/04/05 05:02:12;;;;;;;7.57;5.22;;;11.70;99.90;;;;;;3967943;24;20054;-75
2024/04/05 05:04:13;;;;;;;11.35;6.53;;;11.80;99.90;;;;;;3994301;29;20058;-75
2024/04/05 05:06:14;;;;;;;14.85;5.65;;;11.70;99.90;;;;;;4003738;29;20050;-75
2024/04/05 05:08:16;;;;;;;8.38;5.70;;;11.60;99.90;;;;;;4009553;29;20548;-75
2024/04/05 05:10:17;;;;;;;10.57;5.93;;;11.70;99.90;;;;;;4009727;29;20053;-75
2024/04/05 05:12:19;;;;;;;8.13;5.60;;;11.70;99.90;;;;;;4009828;29;20114;-75
2024/04/05 05:14:20;;;;;;;10.02;5.97;;;11.70;99.90;;;;;;4010219;29;20054;-75
2024/04/05 05:16:23;;;;;;;24.98;6.90;;;11.70;99.90;;;;;;4010201;29;20083;-75
2024/04/05 05:18:25;;;;;;;6.57;4.90;;;11.60;99.90;;;;;;4009773;29;20049;-75
2024/04/05 05:20:27;;;;;;;9.52;5.32;;;11.50;99.90;;;;;;4008435;29;20507;-75
2024/04/05 05:22:28;;;;;;;14.07;5.93;;;11.60;99.90;;;;;;4010041;29;20049;-76
2024/04/05 05:24:30;;;;;;;8.80;5.97;;;11.50;99.90;;;;;;4009560;29;20058;-75
2024/04/05 05:26:31;;;;;;;9.93;6.38;;;11.50;99.90;;;;;;4009814;29;20054;-75
2024/04/05 05:28:32;;;;;;;8.43;5.90;;;11.60;99.90;;;;;;4009860;29;20057;-76
2024/04/05 05:30:34;;;;;;;8.90;6.20;;;11.60;99.90;;;;;;4009569;29;20050;-77
2024/04/05 05:32:35;;;;;;;10.00;6.25;;;11.70;99.90;;;;;;4009557;29;20085;-77
2024/04/05 05:34:39;;;;;;;11.68;6.38;;;11.70;99.90;;;;;;4009994;29;20054;-75
2024/04/05 05:36:40;;;;;;;10.00;6.38;;;11.70;99.90;;;;;;4009587;29;20126;-75
2024/04/05 05:38:42;;;;;;;8.80;5.80;;;11.60;99.90;;;;;;4009970;29;20054;-75
2024/04/05 05:40:42;;;;;;;10.27;6.00;;;11.60;99.90;;;;;;4009622;29;20397;-75
2024/04/05 05:42:44;;;;;;;11.35;6.55;;;11.70;99.90;;;;;;4009355;29;20075;-76
2024/04/05 05:44:45;;;;;;;9.48;5.78;;;11.70;99.90;;;;;;4010559;29;20106;-76
2024/04/05 05:46:47;;;;;;;14.93;6.50;;;11.70;99.90;;;;;;4009721;29;20050;-75
2024/04/05 05:48:48;;;;;;;11.77;5.93;;;11.70;99.90;;;;;;3995186;29;20058;-75
2024/04/05 05:50:51;;;;;;;11.15;5.78;;;11.60;99.90;;;;;;3994673;29;20536;-75
2024/04/05 05:52:52;;;;;;;10.23;6.00;;;11.70;99.90;;;;;;3994175;29;20058;-75
2024/04/05 05:54:54;;;;;;;9.80;6.00;;;11.70;99.90;;;;;;3994099;29;20057;-75
2024/04/05 05:56:55;;;;;;;8.43;5.30;;;11.70;99.90;;;;;;3993967;29;20050;-76
2024/04/05 05:58:57;;;;;;;8.75;4.93;;;11.80;99.90;;;;;;3994003;29;20485;-75
2024/04/05 06:01:06;;;;;;;8.82;4.88;;;11.80;99.90;;;;;;3993779;29;20520;-76
2024/04/05 06:03:07;;;;;;;8.38;5.28;;;11.80;99.90;;;;;;3994327;29;20082;-76
2024/04/05 06:05:11;;;;;;;6.85;4.80;;;11.80;99.90;;;;;;3993786;29;20061;-77
2024/04/05 06:07:13;;;;;;;7.53;4.65;;;11.90;99.90;;;;;;3993873;29;20050;-76
2024/04/05 06:09:16;;;;;;;9.55;4.82;;;11.90;99.90;;;;;;3998051;29;20042;-75
2024/04/05 06:11:17;;;;;;;8.38;5.00;;;11.90;99.90;;;;;;4009179;29;20504;-74
2024/04/05 06:13:19;;;;;;;7.13;4.63;;;11.90;99.90;;;;;;4009058;29;20062;-75
2024/04/05 06:15:20;;;;;;;8.50;4.88;;;12.00;99.90;;;;;;4008902;29;20050;-76
2024/04/05 06:17:23;;;;;;;9.77;5.10;;;12.00;99.90;;;;;;4009211;29;20106;-76
2024/04/05 06:19:24;;;;;;;7.53;3.90;;;12.00;99.90;;;;;;4009012;29;20053;-76
2024/04/05 06:21:25;;;;;;;8.23;3.80;;;12.10;99.90;;;;;;4008727;29;20496;-77
2024/04/05 06:23:28;;;;;;;9.18;4.80;;;12.10;99.90;;;;;;4008672;29;20050;-76
2024/04/05 06:25:29;;;;;;;7.75;5.10;;;12.20;99.90;;;;;;4008918;29;20098;-75
2024/04/05 06:27:31;;;;;;;9.73;6.13;;;12.10;99.90;;;;;;4008628;29;20054;-75
2024/04/05 06:29:32;;;;;;;11.73;6.82;;;12.00;99.90;;;;;;4008902;29;20520;-75
2024/04/05 06:31:35;;;;;;;9.50;6.15;;;11.90;99.90;;;;;;4008670;29;20054;-75
2024/04/05 06:33:36;;;;;;;8.75;5.68;;;11.90;99.90;;;;;;4008673;29;20053;-75
2024/04/05 06:35:38;;;;;;;8.57;5.80;;;12.00;99.90;;;;;;4008653;29;20106;-75
2024/04/05 06:37:39;;;;;;;10.15;6.03;;;12.00;99.90;;;;;;4001442;29;20054;-75
2024/04/05 06:39:43;;;;;;;10.55;6.70;;;12.00;99.90;;;;;;3993489;29;20050;-75
2024/04/05 06:41:43;;;;;;;10.15;6.25;;;12.00;99.90;;;;;;3993458;29;20046;-75
2024/04/05 06:43:44;;;;;;;9.23;5.82;;;12.00;99.90;;;;;;3993570;29;20079;-75
2024/04/05 06:45:54;;;;;;;9.52;5.97;;;12.10;99.90;;;;;;3993247;29;20408;-75
2024/04/05 06:47:55;;;;;;;10.00;6.50;;;12.30;99.90;;;;;;3993422;29;20090;-75
2024/04/05 06:49:57;;;;;;;8.43;5.30;;;12.30;99.90;;;;;;3993423;29;20508;-75
2024/04/05 06:51:58;;;;;;;8.75;5.45;;;12.40;99.90;;;;;;3993723;29;20110;-75
2024/04/05 06:54:00;;;;;;;8.07;5.15;;;12.50;99.90;;;;;;3993339;29;20050;-75
2024/04/05 06:56:02;;;;;;;9.45;5.45;;;12.70;99.90;;;;;;3993755;29;20050;-74
2024/04/05 06:58:05;;;;;;;7.93;4.22;;;12.70;99.90;;;;;;3993825;29;20054;-76
2024/04/05 07:00:10;;;;;;;7.00;4.28;;;12.80;99.90;;;;;;4004393;29;20050;-75
2024/04/05 07:02:12;;;;;;;8.70;3.92;;;12.80;99.90;;;;;;4008639;29;20530;-75
2024/04/05 07:04:13;;;;;;;8.25;4.10;;;12.90;99.90;;;;;;4007811;29;20068;-75
2024/04/05 07:06:15;;;;;;;7.75;4.22;;;13.00;99.90;;;;;;4008262;29;20050;-75
2024/04/05 07:08:16;;;;;;;6.85;3.88;;;13.00;99.90;;;;;;4008825;29;20449;-75
2024/04/05 07:10:17;;;;;;;7.13;4.20;;;13.10;99.90;;;;;;3998326;29;20047;-75
2024/04/05 07:12:20;;;;;;;7.82;4.45;;;13.20;99.90;;;;;;3993205;29;20050;-75
2024/04/05 07:14:22;;;;;;;8.77;4.65;;;13.30;99.90;;;;;;3993411;29;20408;-76
2024/04/05 07:16:22;;;;;;;7.85;4.47;;;13.30;99.90;;;;;;3993400;29;20046;-75
2024/04/05 07:18:25;;;;;;;7.28;4.60;;;13.40;99.90;;;;;;3992841;29;20077;-77
2024/04/05 07:20:26;;;;;;;9.27;4.60;;;13.50;99.90;;;;;;3993466;29;20412;-76
2024/04/05 07:22:27;;;;;;;10.73;4.47;;;13.50;99.90;;;;;;3993367;29;20054;-75
2024/04/05 07:24:28;;;;;;;26.95;15.68;;;13.60;99.90;;;;;;3993077;29;20481;-75
2024/04/05 07:26:30;;;;;;;14.38;7.40;;;13.70;99.90;;;;;;3993250;29;20055;-75
2024/04/05 07:28:32;;;;;;;11.15;6.38;;;13.70;99.90;;;;;;3993019;29;20062;-77
2024/04/05 07:30:36;;;;;;;8.52;4.18;;;13.80;99.90;;;;;;3994040;29;20093;-76
2024/04/05 07:32:37;;;;;;;6.15;3.45;;;13.80;99.90;;;;;;3992962;29;20065;-76
2024/04/05 07:34:39;;;;;;;6.93;3.30;;;13.90;99.90;;;;;;3993290;29;20083;-77
2024/04/05 07:36:40;;;;;;;6.32;3.38;;;13.90;99.90;;;;;;3992789;29;20115;-77
2024/04/05 07:38:42;;;;;;;7.45;3.45;;;14.00;99.90;;;;;;3993453;29;20062;-76
2024/04/05 07:40:42;;;;;;;8.15;3.28;;;14.10;99.90;;;;;;3992864;29;20077;-75
2024/04/05 07:42:50;;;;;;;6.00;3.00;;;14.10;99.90;;;;;;3992699;29;20061;-76
2024/04/05 07:44:54;;;;;;;6.00;3.40;;;14.20;99.90;;;;;;3993007;29;20386;-76
2024/04/05 07:46:55;;;;;;;5.05;2.50;;;14.20;99.90;;;;;;3992848;29;20523;-75
2024/04/05 07:48:57;;;;;;;5.97;2.53;;;14.30;99.90;;;;;;3996683;29;20110;-76
2024/04/05 07:51:00;;;;;;;6.72;2.78;;;14.40;99.90;;;;;;4009055;29;20511;-77
2024/04/05 07:53:01;;;;;;;6.63;3.00;;;14.40;99.90;;;;;;4007615;29;20093;-77
2024/04/05 07:55:04;;;;;;;6.57;2.53;;;14.50;99.90;;;;;;4007851;29;20114;-77
2024/04/05 07:57:05;;;;;;;6.63;2.80;;;14.50;99.90;;;;;;4007539;29;20054;-76
2024/04/05 07:59:06;;;;;;;6.63;2.55;;;14.60;99.90;;;;;;4008016;29;20446;-76
2024/04/05 08:01:10;;;;;;;5.78;2.45;;;14.60;99.90;;;;;;4007349;29;20058;-76
2024/04/05 08:03:10;;;;;;;4.78;2.53;;;14.70;99.90;;;;;;4006381;29;20056;-75
2024/04/05 08:05:12;;;;;;;6.95;2.50;;;14.70;99.90;;;;;;4007610;29;20547;-76
2024/04/05 08:07:13;;;;;;;6.40;2.97;;;14.70;99.90;;;;;;4007503;29;20053;-76
2024/04/05 08:09:15;;;;;;;5.35;2.63;;;14.70;99.90;;;;;;4001598;29;20114;-76
2024/04/05 08:11:16;;;;;;;7.18;2.83;;;14.80;99.90;;;;;;4001432;29;20049;-76
2024/04/05 08:13:18;;;;;;;8.27;2.60;;;14.80;99.90;;;;;;3994319;29;20501;-75
2024/04/05 08:15:19;;;;;;;6.70;2.25;;;14.80;99.90;;;;;;3992544;29;20462;-76
2024/04/05 08:17:22;;;;;;;7.88;2.20;;;14.80;99.90;;;;;;3992442;29;20568;-75
2024/04/05 08:19:23;;;;;;;6.72;2.30;;;14.80;99.90;;;;;;3992211;29;20095;-76
2024/04/05 08:21:25;;;;;;;5.40;2.10;;;14.90;99.90;;;;;;3992363;29;20062;-76
2024/04/05 08:23:26;;;;;;;6.18;1.92;;;15.00;99.20;;;;;;3992392;29;20115;-76
2024/04/05 08:25:27;;;;;;;4.47;1.10;;;15.10;98.60;;;;;;3992477;29;20054;-76
2024/04/05 08:27:30;;;;;;;5.72;1.13;;;15.10;96.50;;;;;;3992328;29;20078;-77
2024/04/05 08:29:32;;;;;;;4.85;1.50;;;15.20;95.10;;;;;;3993816;29;20054;-76
2024/04/05 08:31:33;;;;;;;3.70;1.13;;;15.30;94.50;;;;;;3995214;29;20086;-77
2024/04/05 08:33:36;;;;;;;4.07;1.30;;;15.40;93.80;;;;;;3995275;29;20058;-76
2024/04/05 08:35:37;;;;;;;5.45;1.48;;;15.50;93.30;;;;;;3995160;29;20054;-76
2024/04/05 08:37:39;;;;;;;5.40;1.15;;;15.60;92.70;;;;;;3995329;29;20051;-76
2024/04/05 08:39:40;;;;;;;4.45;1.20;;;15.60;91.80;;;;;;3996395;29;20062;-74
2024/04/05 08:41:45;;;;;;;5.93;1.08;;;15.70;91.90;;;;;;3995098;29;20461;-77
2024/04/05 08:43:46;;;;;;;4.43;1.35;;;15.80;91.50;;;;;;3995292;29;20485;-77
2024/04/05 08:45:50;;;;;;;4.88;1.52;;;15.90;91.00;;;;;;3995833;29;20404;-76
2024/04/05 08:47:55;;;;;;;5.28;1.70;;;16.00;94.50;;;;;;3995132;29;20051;-76
2024/04/05 08:49:59;;;;;;;3.63;1.00;;;16.10;94.60;;;;;;3995420;29;20100;-76
2024/04/05 08:52:00;;;;;;;4.22;1.20;;;16.40;85.70;;;;;;3995288;29;20054;-76
2024/04/05 08:54:02;;;;;;;3.63;1.20;;;16.40;85.50;;;;;;3995180;29;20134;-77
2024/04/05 08:56:06;;;;;;;4.85;1.20;;;16.50;84.20;;;;;;3995530;29;20050;-76
2024/04/05 08:58:09;;;;;;;4.93;1.10;;;16.50;85.80;;;;;;3995493;29;20055;-79
2024/04/05 09:00:18;;;;;;;4.05;1.10;;;16.60;82.60;;;;;;3995561;29;20054;-79
2024/04/05 09:02:23;;;;;;;3.65;1.05;;;16.60;82.20;;;;;;3994349;29;20501;-80
2024/04/05 09:04:25;;;;;;;6.22;1.00;;;16.70;83.20;;;;;;4002264;29;20054;-77
2024/04/05 09:06:28;;;;;;;4.15;1.10;;;16.70;82.50;;;;;;4010110;29;20054;-78
2024/04/05 09:08:29;;;;;;;3.72;1.33;;;16.80;83.40;;;;;;4010069;29;20106;-78
2024/04/05 09:10:30;;;;;;;3.78;1.17;;;16.90;82.60;;;;;;4010773;29;20057;-79
2024/04/05 09:12:33;;;;;;;4.05;1.08;;;17.00;83.70;;;;;;4010001;29;20089;-77
2024/04/05 09:14:36;;;;;;;4.20;1.02;;;17.00;82.30;;;;;;4007465;29;20504;-79
2024/04/05 09:16:37;;;;;;;3.83;0.90;;;17.10;81.30;;;;;;4004663;29;20050;-79
2024/04/05 09:18:39;;;;;;;3.85;1.05;;;17.10;79.00;;;;;;3998978;29;20065;-80
2024/04/05 09:20:41;;;;;;;3.20;1.20;;;17.20;79.40;;;;;;3997767;29;20404;-79
2024/04/05 09:22:44;;;;;;;3.97;1.00;;;17.30;79.70;;;;;;4003531;29;20461;-78
2024/04/05 09:24:45;;;;;;;4.20;1.10;;;17.30;78.50;;;;;;4003217;29;20126;-78
2024/04/05 09:26:47;;;;;;;3.55;1.10;;;17.40;78.50;;;;;;4000301;29;20046;-78
2024/04/05 09:28:58;;;;;;;3.35;1.10;;;17.50;77.80;;;;;;3996160;29;20058;-79
2024/04/05 09:31:00;;;;;;;2.67;0.82;;;17.50;77.30;;;;;;4001488;29;20507;-77
2024/04/05 09:33:01;;;;;;;3.70;0.93;;;17.60;76.90;;;;;;4001378;29;20111;-78
2024/04/05 09:35:03;;;;;;;3.05;1.10;;;17.70;75.00;;;;;;4004589;29;20477;-77
2024/04/05 09:37:04;;;;;;;3.70;1.20;;;17.80;75.30;;;;;;4008410;29;20077;-77
2024/04/05 09:39:13;;;;;;;3.97;1.10;;;17.80;74.20;;;;;;4005323;29;20061;-79
2024/04/05 09:41:16;;;;;;;5.00;1.10;;;17.90;71.70;;;;;;3998607;29;20125;-79
2024/04/05 09:43:19;;;;;;;2.83;0.82;;;17.90;69.20;;;;;;4004644;29;20445;-80
2024/04/05 09:45:23;;;;;;;2.67;0.90;;;18.10;67.20;;;;;;4007104;29;20057;-80
2024/04/05 09:47:25;;;;;;;3.15;0.93;;;18.30;66.50;;;;;;4003286;29;20089;-79
2024/04/05 09:49:27;;;;;;;3.00;0.90;;;18.30;65.00;;;;;;4006310;29;20503;-79
2024/04/05 09:51:42;;;;;;;2.97;0.80;;;18.30;64.90;;;;;;4003781;29;20110;-80
2024/04/05 09:53:46;;;;;;;3.03;0.82;;;18.40;63.10;;;;;;4009203;29;20087;-80
2024/04/05 09:55:53;;;;;;;2.95;0.90;;;18.50;63.10;;;;;;4006968;29;20540;-82
2024/04/05 09:57:55;;;;;;;4.95;1.00;;;18.60;61.90;;;;;;4018687;29;20045;-78
2024/04/05 10:00:09;;;;;;;4.95;1.10;;;18.60;62.20;;;;;;4007494;29;20569;-78
2024/04/05 10:02:11;;;;;;;3.50;1.20;;;18.60;62.40;;;;;;4004495;29;20475;-79
2024/04/05 10:04:13;;;;;;;3.35;0.90;;;18.70;61.50;;;;;;4004075;29;20104;-80
2024/04/05 10:06:16;;;;;;;4.05;0.90;;;18.80;61.00;;;;;;3995059;29;20066;-79
2024/04/05 10:08:17;;;;;;;2.65;0.80;;;18.90;62.30;;;;;;3998678;29;20103;-86
2024/04/05 10:10:29;;;;;;;2.72;0.80;;;18.90;61.00;;;;;;3994882;29;20054;-83
2024/04/05 10:12:31;;;;;;;4.10;0.80;;;19.00;59.50;;;;;;4000205;29;20050;-78
2024/04/05 10:14:33;;;;;;;2.22;0.70;;;19.20;56.90;;;;;;3995153;29;20081;-80
2024/04/05 10:16:34;;;;;;;2.95;0.90;;;19.40;56.90;;;;;;3994713;29;20102;-78
2024/04/05 10:18:38;;;;;;;3.55;0.88;;;19.40;57.20;;;;;;3994086;29;20079;-78
2024/04/05 10:20:39;;;;;;;3.60;1.05;;;19.50;57.50;;;;;;3994019;29;20061;-76
2024/04/05 10:22:40;;;;;;;2.88;0.63;;;19.50;57.30;;;;;;3993732;29;20137;-78
2024/04/05 10:24:42;;;;;;;2.78;0.80;;;19.50;56.00;;;;;;3994224;29;20046;-78
2024/04/05 10:26:52;;;;;;;2.70;0.73;;;19.60;55.60;;;;;;3994183;29;20055;-78
2024/04/05 10:29:04;;;;;;;2.47;0.80;;;19.60;55.60;;;;;;3994271;29;20466;-78
2024/04/05 10:31:06;;;;;;;2.55;0.70;;;19.70;54.30;;;;;;3993770;29;20409;-79
2024/04/05 10:33:07;;;;;;;2.00;0.68;;;19.70;53.40;;;;;;3993745;29;20077;-77
2024/04/05 10:35:11;;;;;;;3.30;0.90;;;19.80;53.90;;;;;;3993845;29;20058;-77
2024/04/05 10:37:14;;;;;;;2.67;0.70;;;19.90;53.70;;;;;;3993553;29;20108;-76
2024/04/05 10:39:17;;;;;;;3.13;0.85;;;20.00;54.00;;;;;;3993807;29;20050;-78
2024/04/05 10:41:18;;;;;;;3.17;0.88;;;20.10;53.20;;;;;;3993826;29;20052;-76
2024/04/05 10:43:20;;;;;;;3.30;0.80;;;20.20;52.30;;;;;;3993770;29;20569;-77
2024/04/05 10:45:23;;;;;;;4.13;0.90;;;20.20;52.00;;;;;;3993484;29;20053;-76
2024/04/05 10:47:28;;;;;;;3.05;0.90;;;20.40;52.90;;;;;;3993409;29;20054;-77
2024/04/05 10:49:29;;;;;;;3.17;0.80;;;20.50;53.00;;;;;;3993766;29;20078;-77
2024/04/05 10:51:31;;;;;;;3.65;0.80;;;20.50;52.00;;;;;;3993206;29;20061;-78
2024/04/05 10:53:32;;;;;;;2.90;0.80;;;20.60;52.90;;;;;;3993915;29;20076;-77
2024/04/05 10:55:35;;;;;;;2.80;0.80;;;20.70;52.30;;;;;;3993921;29;20083;-78
2024/04/05 10:57:37;;;;;;;2.28;0.80;;;20.80;51.80;;;;;;3996598;29;20097;-78
2024/04/05 10:59:38;;;;;;;3.78;0.80;;;20.90;51.60;;;;;;3996290;29;20053;-79
2024/04/05 11:01:41;;;;;;;2.65;0.82;;;21.00;50.90;;;;;;3993536;29;20054;-78
2024/04/05 11:03:43;;;;;;;4.22;0.90;;;21.00;50.60;;;;;;3993381;29;20404;-78
2024/04/05 11:05:44;;;;;;;4.15;0.98;;;21.00;50.60;;;;;;3993572;29;20080;-77
2024/04/05 11:07:46;;;;;;;3.00;0.80;;;21.10;50.90;;;;;;3993885;29;20481;-77
2024/04/05 11:09:48;;;;;;;2.90;1.00;;;21.10;51.00;;;;;;3993094;29;20054;-77
2024/04/05 11:11:49;;;;;;;2.15;0.77;;;21.20;50.50;;;;;;3993804;29;20065;-77
2024/04/05 11:14:00;;;;;;;2.55;0.90;;;21.20;50.50;;;;;;3993627;29;20054;-79
2024/04/05 11:16:03;;;;;;;2.72;0.80;;;21.30;51.00;;;;;;3993119;29;20082;-79
2024/04/05 11:18:05;;;;;;;2.05;0.70;;;21.30;50.60;;;;;;3993811;29;20515;-78
2024/04/05 11:20:09;;;;;;;3.50;0.80;;;21.30;50.60;;;;;;3993627;29;20054;-78
2024/04/05 11:22:10;;;;;;;4.03;0.82;;;21.40;49.90;;;;;;3993170;29;20111;-78
2024/04/05 11:24:18;;;;;;;4.43;0.93;;;21.40;49.20;;;;;;3993688;29;20058;-78
2024/04/05 11:26:20;;;;;;;3.47;0.90;;;21.50;49.30;;;;;;3993761;29;20481;-78
2024/04/05 11:28:23;;;;;;;2.78;0.88;;;21.60;50.50;;;;;;3993704;29;20552;-78
2024/04/05 11:30:24;;;;;;;2.70;0.80;;;21.70;50.90;;;;;;3993108;29;20059;-78
2024/04/05 11:32:28;;;;;;;3.05;0.90;;;21.70;50.20;;;;;;3993422;29;20484;-79
2024/04/05 11:34:30;;;;;;;2.72;0.70;;;21.80;49.30;;;;;;3993517;29;20454;-79
2024/04/05 11:36:32;;;;;;;3.00;0.75;;;21.80;48.10;;;;;;3993233;29;20115;-79
2024/04/05 11:38:34;;;;;;;2.83;0.90;;;21.90;47.30;;;;;;3992915;29;20559;-77
2024/04/05 11:40:36;;;;;;;3.55;0.82;;;22.00;46.30;;;;;;3993213;29;20109;-79
2024/04/05 11:42:37;;;;;;;3.45;1.00;;;22.10;45.60;;;;;;3992849;29;20046;-78
2024/04/05 11:44:39;;;;;;;3.05;0.80;;;22.20;44.60;;;;;;3993069;29;20063;-79
2024/04/05 11:46:41;;;;;;;3.42;0.90;;;22.20;44.20;;;;;;3993027;29;20050;-79
2024/04/05 11:48:42;;;;;;;1.83;0.60;;;22.20;43.80;;;;;;3992866;29;20083;-79
2024/04/05 11:50:45;;;;;;;2.22;0.80;;;22.20;43.50;;;;;;3993281;29;20050;-76
2024/04/05 11:52:46;;;;;;;3.03;0.93;;;22.20;43.80;;;;;;3992854;29;20462;-78
2024/04/05 11:54:47;;;;;;;3.28;0.80;;;22.20;44.10;;;;;;3992683;29;20095;-78
2024/04/05 11:56:48;;;;;;;4.53;0.80;;;22.30;43.80;;;;;;3992914;29;20054;-79
2024/04/05 11:58:49;;;;;;;1.92;0.70;;;22.40;44.20;;;;;;3992998;29;20058;-78
2024/04/05 12:00:51;;;;;;;2.80;0.90;;;22.50;43.30;;;;;;3992706;29;20114;-80
2024/04/05 12:02:52;;;;;;;3.22;0.90;;;22.60;42.70;;;;;;3992910;29;20050;-79
2024/04/05 12:04:54;;;;;;;2.55;0.60;;;22.70;42.60;;;;;;3993022;29;20050;-78
2024/04/05 12:06:56;;;;;;;3.35;0.90;;;22.90;43.20;;;;;;3992637;29;20058;-78
2024/04/05 12:08:57;;;;;;;1.85;0.68;;;23.00;42.80;;;;;;3993150;29;20065;-77
2024/04/05 12:11:00;;;;;;;1.95;0.70;;;22.90;41.00;;;;;;3992746;29;20411;-77
2024/04/05 12:13:01;;;;;;;3.70;0.70;;;22.80;41.30;;;;;;3992309;29;20058;-78
2024/04/05 12:15:03;;;;;;;2.03;0.60;;;22.70;42.20;;;;;;3992729;29;20059;-78
2024/04/05 12:17:05;;;;;;;2.60;0.70;;;22.60;41.50;;;;;;3992722;29;20056;-78
2024/04/05 12:19:07;;;;;;;2.65;0.70;;;22.50;41.20;;;;;;3992520;29;20061;-79
2024/04/05 12:21:07;;;;;;;3.17;0.90;;;22.40;41.50;;;;;;3992782;29;20050;-79
2024/04/05 12:23:11;;;;;;;2.28;0.70;;;22.40;41.80;;;;;;3993039;29;20058;-79
2024/04/05 12:25:11;;;;;;;2.05;0.70;;;22.30;41.90;;;;;;3992524;29;20050;-79
2024/04/05 12:27:13;;;;;;;2.40;0.60;;;22.30;43.00;;;;;;3992326;29;20102;-77
2024/04/05 12:29:14;;;;;;;3.20;0.80;;;22.20;43.30;;;;;;3992359;29;20468;-78
2024/04/05 12:31:15;;;;;;;2.70;0.70;;;22.20;43.00;;;;;;3992361;29;20055;-78
2024/04/05 12:33:17;;;;;;;1.80;0.73;;;22.20;43.60;;;;;;3992243;29;20591;-79
2024/04/05 12:35:18;;;;;;;3.90;0.90;;;22.20;44.00;;;;;;3992435;29;20074;-79
2024/04/05 12:37:22;;;;;;;2.28;0.65;;;22.30;43.90;;;;;;3992615;29;20057;-77
2024/04/05 12:39:24;;;;;;;1.95;0.63;;;22.20;43.60;;;;;;3992285;29;20107;-77
2024/04/05 12:41:27;;;;;;;2.15;0.90;;;22.20;44.20;;;;;;3992295;29;20066;-79
2024/04/05 12:43:28;;;;;;;2.58;0.80;;;22.30;44.70;;;;;;3992138;29;20460;-79
2024/04/05 12:45:31;;;;;;;2.05;0.80;;;22.50;44.80;;;;;;3992119;29;20086;-78
2024/04/05 12:47:31;;;;;;;3.72;0.90;;;22.50;44.60;;;;;;3992166;29;20107;-79
2024/04/05 12:49:33;;;;;;;2.72;0.90;;;22.60;44.60;;;;;;3991894;29;20062;-79
2024/04/05 12:51:34;;;;;;;3.00;0.90;;;22.60;44.40;;;;;;3992059;29;20107;-78
2024/04/05 12:53:36;;;;;;;6.90;1.00;;;22.60;44.40;;;;;;3992087;29;20431;-78
2024/04/05 12:55:38;;;;;;;3.47;0.80;;;22.70;44.40;;;;;;3991692;29;20050;-79
2024/04/05 12:57:40;;;;;;;2.53;0.90;;;22.80;44.40;;;;;;3995957;29;20110;-78
2024/04/05 12:59:42;;;;;;;2.90;0.80;;;22.80;44.40;;;;;;3995432;29;20086;-77
2024/04/05 13:01:44;;;;;;;3.40;0.82;;;22.90;44.90;;;;;;3991507;29;20057;-76
2024/04/05 13:03:45;;;;;;;3.60;0.85;;;22.90;44.40;;;;;;3992108;29;20094;-79
2024/04/05 13:05:47;;;;;;;3.17;0.82;;;22.80;44.30;;;;;;3997419;29;20050;-79
2024/04/05 13:07:48;;;;;;;2.95;0.88;;;22.70;44.50;;;;;;3995697;29;20087;-80
2024/04/05 13:09:50;;;;;;;1.83;0.70;;;22.60;44.70;;;;;;4004635;29;20062;-78
2024/04/05 13:11:52;;;;;;;2.38;0.73;;;22.50;45.20;;;;;;4004723;29;20565;-81
2024/04/05 13:13:54;;;;;;;2.42;0.80;;;22.50;45.90;;;;;;4001607;29;20061;-77
2024/04/05 13:15:56;;;;;;;2.63;0.88;;;22.40;46.20;;;;;;4001639;29;20137;-79
2024/04/05 13:17:58;;;;;;;1.40;0.60;;;22.30;47.00;;;;;;3999585;29;20066;-77
2024/04/05 13:19:59;;;;;;;2.97;0.93;;;22.30;45.50;;;;;;3997504;29;20745;-78
2024/04/05 13:22:01;;;;;;;3.15;0.77;;;22.20;45.80;;;;;;4005129;29;20106;-84
2024/04/05 13:24:03;;;;;;;2.42;0.85;;;22.20;45.60;;;;;;4005611;29;20077;-82
2024/04/05 13:26:09;;;;;;;3.03;0.90;;;22.20;46.20;;;;;;4007578;29;20082;-81
2024/04/05 13:28:12;;;;;;;3.08;0.80;;;22.30;45.10;;;;;;4004817;29;20058;-82
2024/04/05 13:30:14;;;;;;;3.00;0.70;;;22.40;45.20;;;;;;4007838;29;20057;-82
2024/04/05 13:32:17;;;;;;;4.53;0.90;;;22.50;43.40;;;;;;4007288;29;20086;-82
2024/04/05 13:34:18;;;;;;;2.83;0.60;;;22.60;43.40;;;;;;4007102;29;20081;-83
2024/04/05 13:36:21;;;;;;;4.25;0.90;;;22.70;43.00;;;;;;4007490;29;20060;-81
2024/04/05 13:38:22;;;;;;;3.38;0.75;;;22.80;43.10;;;;;;4005808;29;20058;-83
2024/04/05 13:40:24;;;;;;;2.25;0.70;;;22.90;42.70;;;;;;4006615;29;20145;-79
2024/04/05 13:42:26;;;;;;;2.97;0.93;;;22.90;42.60;;;;;;3992218;29;20069;-78
2024/04/05 13:44:29;;;;;;;5.60;0.80;;;23.00;43.20;;;;;;3998093;29;20141;-80
2024/04/05 13:46:30;;;;;;;3.15;0.80;;;22.90;43.10;;;;;;4007171;29;20057;-80
2024/04/05 13:48:32;;;;;;;3.67;0.80;;;22.80;42.10;;;;;;4005295;29;20092;-81
2024/04/05 13:50:34;;;;;;;2.30;0.80;;;22.60;43.20;;;;;;4006153;29;20134;-80
2024/04/05 13:52:35;;;;;;;2.65;0.85;;;22.50;42.90;;;;;;4006497;29;20060;-80
2024/04/05 13:54:36;;;;;;;3.28;0.90;;;22.50;43.50;;;;;;3998793;29;20062;-80
2024/04/05 13:56:38;;;;;;;3.15;0.93;;;22.40;43.40;;;;;;3991796;29;20493;-81
2024/04/05 13:58:40;;;;;;;2.60;0.75;;;22.40;43.30;;;;;;3992018;29;20054;-80
2024/04/05 14:00:43;;;;;;;4.03;0.95;;;22.40;43.50;;;;;;3992845;29;20652;-82
2024/04/05 14:02:44;;;;;;;3.15;0.98;;;22.50;42.90;;;;;;4004502;29;20106;-78
2024/04/05 14:04:46;;;;;;;1.88;0.77;;;22.60;42.30;;;;;;4001001;29;20058;-78
2024/04/05 14:06:47;;;;;;;1.73;0.68;;;22.70;42.40;;;;;;4003081;29;20064;-76
2024/04/05 14:08:51;;;;;;;2.45;0.80;;;22.60;42.10;;;;;;3998434;29;20472;-79
2024/04/05 14:10:53;;;;;;;2.90;0.88;;;22.60;42.50;;;;;;4001977;29;20058;-77
2024/04/05 14:12:54;;;;;;;4.47;1.00;;;22.60;42.90;;;;;;3991862;29;20061;-74
2024/04/05 14:14:56;;;;;;;2.85;0.90;;;22.60;42.80;;;;;;4000400;29;20153;-77
2024/04/05 14:16:59;;;;;;;2.75;0.85;;;22.60;42.80;;;;;;3991432;29;20067;-80
2024/04/05 14:19:01;;;;;;;3.10;0.90;;;22.50;42.70;;;;;;3998942;29;20053;-79
2024/04/05 14:21:08;;;;;;;4.10;0.90;;;22.40;43.30;;;;;;4004548;29;20126;-78
2024/04/05 14:23:09;;;;;;;2.42;0.90;;;22.40;44.00;;;;;;4001241;29;20439;-78
2024/04/05 14:25:11;;;;;;;2.35;0.80;;;22.30;43.60;;;;;;4000916;29;20056;-77
2024/04/05 14:27:12;;;;;;;2.67;0.88;;;22.30;44.10;;;;;;4003869;29;20050;-79
2024/04/05 14:29:14;;;;;;;3.40;0.82;;;22.10;44.10;;;;;;3999182;29;20053;-79
2024/04/05 14:31:14;;;;;;;1.95;0.70;;;22.20;44.70;;;;;;3995843;29;20050;-77
2024/04/05 14:33:18;;;;;;;4.13;1.17;;;22.20;45.50;;;;;;3996420;29;20409;-77
2024/04/05 14:35:18;;;;;;;2.35;0.95;;;22.10;45.60;;;;;;3999931;29;20099;-78
2024/04/05 14:37:20;;;;;;;2.10;0.85;;;22.10;46.00;;;;;;3999309;29;20466;-78
2024/04/05 14:39:21;;;;;;;2.35;0.85;;;22.00;45.30;;;;;;3994173;29;20054;-77
2024/04/05 14:41:23;;;;;;;1.98;0.80;;;22.00;46.50;;;;;;3994741;29;20134;-77
2024/04/05 14:43:24;;;;;;;3.22;0.98;;;22.10;46.30;;;;;;3995188;29;20809;-77
2024/04/05 14:45:26;;;;;;;4.57;1.10;;;22.00;45.90;;;;;;4002763;29;20124;-78
2024/04/05 14:47:27;;;;;;;2.75;0.80;;;22.00;46.70;;;;;;3998841;29;20046;-80
2024/04/05 14:49:35;;;;;;;3.22;1.02;;;22.00;46.30;;;;;;3997929;29;20176;-79
2024/04/05 14:51:36;;;;;;;2.38;0.70;;;21.90;46.30;;;;;;3996608;29;20137;-77
2024/04/05 14:53:39;;;;;;;3.35;0.85;;;21.90;46.70;;;;;;3996415;29;20042;-78
2024/04/05 14:55:40;;;;;;;3.20;0.85;;;21.90;46.50;;;;;;3994460;29;20102;-78
2024/04/05 14:57:42;;;;;;;2.75;0.77;;;21.80;47.10;;;;;;4000381;29;20151;-78
2024/04/05 14:59:43;;;;;;;3.70;1.00;;;21.80;47.50;;;;;;3999529;29;20126;-78
2024/04/05 15:01:45;;;;;;;2.88;1.00;;;21.80;46.90;;;;;;4001800;29;20061;-78
2024/04/05 15:03:47;;;;;;;3.30;0.95;;;21.80;46.70;;;;;;3996019;29;20406;-78
2024/04/05 15:06:00;;;;;;;3.15;0.90;;;21.70;46.50;;;;;;3998110;29;20050;-78
2024/04/05 15:08:02;;;;;;;3.58;0.95;;;21.70;47.60;;;;;;3998262;29;20487;-78
2024/04/05 15:10:04;;;;;;;2.78;0.90;;;21.70;47.10;;;;;;4001608;29;20062;-79
2024/04/05 15:12:06;;;;;;;3.25;0.90;;;21.60;45.50;;;;;;3998712;29;20058;-77
2024/04/05 15:14:07;;;;;;;3.95;0.93;;;21.70;46.70;;;;;;4000872;29;20045;-78
2024/04/05 15:16:09;;;;;;;4.57;0.90;;;21.70;46.30;;;;;;3999435;29;20054;-78
2024/04/05 15:18:11;;;;;;;2.60;0.90;;;21.70;45.90;;;;;;4005792;29;20050;-78
2024/04/05 15:20:12;;;;;;;3.40;1.10;;;21.70;46.30;;;;;;3993424;29;20087;-77
2024/04/05 15:22:14;;;;;;;2.80;0.90;;;21.70;46.20;;;;;;4001183;29;20054;-79
2024/04/05 15:24:16;;;;;;;2.88;1.08;;;21.70;46.50;;;;;;3999271;29;20041;-79
2024/04/05 15:26:17;;;;;;;2.90;1.10;;;21.70;46.70;;;;;;4000210;29;20579;-79
2024/04/05 15:28:19;;;;;;;3.45;0.98;;;21.70;46.50;;;;;;4003756;29;20086;-79
2024/04/05 15:30:20;;;;;;;3.15;1.00;;;21.70;46.60;;;;;;3997410;29;20048;-78
2024/04/05 15:32:22;;;;;;;2.17;0.80;;;21.80;46.00;;;;;;4041363;29;20041;-79
2024/04/05 15:34:28;;;;;;;5.00;0.93;;;21.80;45.80;;;;;;4033188;29;20141;-78